Time;durP1;ratioP1;P1;durP2;ratioP2;P2;SDS_P1;SDS_P2;PMS_P1;PMS_P2;Temp;Humidity;BMP_temperature;BMP_pressure;BME280_temperature;BME280_humidity;BME280_pressure;Samples;Min_cycle;Max_cycle;Signal;HPM_P1;HPM_P2
2024/04/08 00:00:41;;;;;;;1.43;1.10;;;15.50;1.00;;;;;;5055786;28;20433;-71
2024/04/08 00:03:07;;;;;;;1.40;1.20;;;15.40;1.00;;;;;;5055889;28;20404;-72
2024/04/08 00:05:33;;;;;;;1.20;1.10;;;15.40;1.00;;;;;;5055751;28;20765;-73
2024/04/08 00:08:01;;;;;;;1.87;1.23;;;15.30;1.00;;;;;;5054959;28;20409;-74
2024/04/08 00:10:27;;;;;;;1.17;1.07;;;15.20;1.00;;;;;;5055692;28;20433;-73
2024/04/08 00:12:53;;;;;;;1.20;1.10;;;15.20;1.00;;;;;;5055586;28;20521;-71
2024/04/08 00:15:19;;;;;;;2.07;1.10;;;15.10;8.70;;;;;;5055414;28;20931;-71
2024/04/08 00:17:45;;;;;;;1.40;1.10;;;15.00;25.50;;;;;;5055577;28;20409;-71
2024/04/08 00:20:11;;;;;;;1.20;1.10;;;15.00;36.50;;;;;;5054731;28;20555;-74
2024/04/08 00:22:38;;;;;;;1.23;1.10;;;14.90;61.20;;;;;;5055684;28;20495;-70
2024/04/08 00:25:08;;;;;;;1.67;1.20;;;14.80;82.30;;;;;;5055613;28;20503;-74
2024/04/08 00:27:34;;;;;;;1.30;1.20;;;14.80;93.80;;;;;;5055489;28;20448;-72
2024/04/08 00:30:00;;;;;;;1.20;1.10;;;14.70;93.70;;;;;;5053091;28;20986;-72
2024/04/08 00:32:26;;;;;;;1.20;1.10;;;14.70;99.90;;;;;;5055538;28;20551;-71
2024/04/08 00:34:51;;;;;;;1.37;1.20;;;14.60;99.90;;;;;;5055299;28;20174;-74
2024/04/08 00:37:17;;;;;;;2.30;1.20;;;14.70;99.90;;;;;;5055367;28;20226;-73
2024/04/08 00:39:43;;;;;;;6.93;1.33;;;14.60;99.90;;;;;;5054119;28;20599;-75
2024/04/08 00:42:09;;;;;;;2.90;1.30;;;14.60;99.90;;;;;;5055270;28;20227;-72
2024/04/08 00:44:35;;;;;;;1.50;1.10;;;14.50;99.90;;;;;;5055145;28;20177;-73
2024/04/08 00:47:01;;;;;;;7.23;1.07;;;14.50;99.90;;;;;;5055138;28;20403;-73
2024/04/08 00:49:28;;;;;;;2.10;1.00;;;14.40;99.90;;;;;;5053945;28;20455;-74
2024/04/08 00:51:55;;;;;;;1.50;1.40;;;14.30;99.90;;;;;;5054897;28;20481;-76
2024/04/08 00:54:23;;;;;;;1.43;1.20;;;14.30;99.90;;;;;;5055068;28;20407;-73
2024/04/08 00:56:49;;;;;;;2.07;1.10;;;14.30;99.90;;;;;;5054828;28;20408;-78
2024/04/08 00:59:15;;;;;;;1.93;1.13;;;14.20;99.90;;;;;;5053806;28;20433;-73
2024/04/08 01:01:41;;;;;;;1.47;1.37;;;14.10;99.90;;;;;;5054745;28;20488;-74
2024/04/08 01:04:08;;;;;;;1.27;1.17;;;14.10;99.90;;;;;;5054718;28;20178;-77
2024/04/08 01:06:34;;;;;;;1.50;1.40;;;14.00;99.90;;;;;;5054836;28;20399;-77
2024/04/08 01:09:11;;;;;;;1.57;1.00;;;13.90;99.90;;;;;;5053689;28;20790;-74
2024/04/08 01:11:38;;;;;;;6.60;1.50;;;13.90;99.90;;;;;;5054331;28;20208;-74
2024/04/08 01:14:03;;;;;;;1.30;1.10;;;13.90;99.90;;;;;;5053202;28;20470;-77
2024/04/08 01:16:29;;;;;;;1.33;1.23;;;13.90;99.90;;;;;;5054611;28;20410;-77
2024/04/08 01:18:58;;;;;;;1.50;1.40;;;13.90;99.90;;;;;;5053420;28;20177;-74
2024/04/08 01:21:24;;;;;;;1.67;1.37;;;13.80;99.90;;;;;;5054473;28;20410;-73
2024/04/08 01:23:52;;;;;;;2.30;1.33;;;13.80;99.90;;;;;;5054298;28;20417;-74
2024/04/08 01:26:18;;;;;;;1.50;1.40;;;13.80;99.90;;;;;;5054243;28;20183;-79
2024/04/08 01:28:44;;;;;;;2.23;1.20;;;13.70;99.90;;;;;;5053440;28;20436;-74
2024/04/08 01:31:10;;;;;;;3.03;1.30;;;13.70;1.00;;;;;;5052823;28;20507;-78
2024/04/08 01:33:37;;;;;;;1.27;1.17;;;13.60;1.00;;;;;;5054340;28;20490;-73
2024/04/08 01:36:04;;;;;;;1.10;1.00;;;13.60;1.00;;;;;;5054111;28;20166;-74
2024/04/08 01:38:37;;;;;;;1.60;1.50;;;13.60;1.00;;;;;;5052731;28;20540;-74
2024/04/08 01:41:03;;;;;;;4.27;1.63;;;13.60;1.00;;;;;;5053941;28;20505;-80
2024/04/08 01:43:49;;;;;;;3.40;1.43;;;13.60;1.00;;;;;;5053999;28;20545;-73
2024/04/08 01:46:15;;;;;;;1.30;1.20;;;13.60;1.00;;;;;;5053328;28;20490;-79
2024/04/08 01:48:41;;;;;;;1.47;1.20;;;13.60;1.00;;;;;;5052877;28;20513;-79
2024/04/08 01:51:06;;;;;;;1.40;1.30;;;13.60;1.00;;;;;;5053679;28;20212;-78
2024/04/08 01:53:32;;;;;;;1.50;1.40;;;13.50;1.00;;;;;;5053874;28;20174;-78
2024/04/08 01:55:58;;;;;;;1.20;1.10;;;13.50;1.00;;;;;;5053694;28;20201;-73
2024/04/08 01:58:24;;;;;;;1.33;1.23;;;13.50;1.00;;;;;;5052852;28;20252;-78
2024/04/08 02:00:56;;;;;;;1.90;1.30;;;13.50;1.00;;;;;;5053768;28;20655;-73
2024/04/08 02:03:22;;;;;;;1.87;1.50;;;13.40;1.00;;;;;;5053736;28;20174;-74
2024/04/08 02:05:47;;;;;;;1.43;1.20;;;13.40;1.00;;;;;;5052307;28;20410;-73
2024/04/08 02:08:13;;;;;;;1.40;1.30;;;13.40;1.00;;;;;;5052622;28;20476;-73
2024/04/08 02:10:40;;;;;;;1.83;1.17;;;13.40;1.00;;;;;;5052152;28;20274;-78
2024/04/08 02:13:06;;;;;;;1.20;1.10;;;13.30;1.00;;;;;;5053559;28;20461;-78
2024/04/08 02:15:31;;;;;;;1.57;1.10;;;13.30;1.00;;;;;;5053628;28;20429;-73
2024/04/08 02:17:57;;;;;;;1.40;1.30;;;13.20;1.00;;;;;;5052545;28;20176;-78
2024/04/08 02:20:23;;;;;;;2.43;1.47;;;13.20;1.00;;;;;;5053238;28;20191;-77
2024/04/08 02:22:49;;;;;;;1.60;1.20;;;13.20;1.00;;;;;;5053553;28;20167;-78
2024/04/08 02:25:14;;;;;;;1.63;1.53;;;13.20;1.00;;;;;;5053760;28;20201;-73
2024/04/08 02:27:40;;;;;;;1.23;1.00;;;13.20;1.00;;;;;;5053291;28;20174;-76
2024/04/08 02:30:07;;;;;;;1.10;1.00;;;13.20;1.00;;;;;;5051508;28;20760;-73
2024/04/08 02:32:32;;;;;;;2.53;1.80;;;13.20;1.00;;;;;;5053295;28;20194;-74
2024/04/08 02:35:00;;;;;;;1.10;1.00;;;13.20;1.00;;;;;;5052130;28;20425;-73
2024/04/08 02:37:26;;;;;;;2.77;1.43;;;13.20;1.00;;;;;;5053549;28;20568;-77
2024/04/08 02:39:55;;;;;;;2.13;1.37;;;13.20;1.00;;;;;;5052396;28;20416;-73
2024/04/08 02:42:21;;;;;;;1.90;1.33;;;13.20;1.00;;;;;;5053281;28;20176;-76
2024/04/08 02:44:46;;;;;;;1.30;1.20;;;13.20;1.00;;;;;;5053221;28;20419;-73
2024/04/08 02:47:12;;;;;;;1.47;1.20;;;13.20;1.00;;;;;;5053273;28;20175;-73
2024/04/08 02:49:41;;;;;;;1.50;1.37;;;13.20;1.00;;;;;;5054037;28;20199;-77
2024/04/08 02:52:07;;;;;;;1.43;1.20;;;13.10;1.00;;;;;;5057206;28;20204;-77
2024/04/08 02:54:33;;;;;;;1.77;1.67;;;13.10;1.00;;;;;;5057124;28;20511;-74
2024/04/08 02:56:59;;;;;;;1.37;1.27;;;13.10;1.00;;;;;;5057093;28;20168;-77
2024/04/08 02:59:25;;;;;;;1.37;1.27;;;13.10;1.00;;;;;;5056273;28;20421;-77
2024/04/08 03:01:51;;;;;;;3.97;1.30;;;13.20;1.00;;;;;;5057058;28;20262;-74
2024/04/08 03:04:17;;;;;;;1.87;1.40;;;13.20;1.00;;;;;;5056969;28;20828;-74
2024/04/08 03:06:43;;;;;;;2.23;1.53;;;13.20;6.40;;;;;;5056890;28;20169;-77
2024/04/08 03:09:09;;;;;;;1.63;1.40;;;13.20;11.00;;;;;;5055944;28;20191;-77
2024/04/08 03:11:34;;;;;;;1.50;1.40;;;13.20;21.90;;;;;;5056697;28;20673;-78
2024/04/08 03:14:18;;;;;;;1.40;1.30;;;13.20;35.30;;;;;;5056834;28;20402;-77
2024/04/08 03:16:52;;;;;;;4.27;1.30;;;13.20;35.30;;;;;;5056558;28;20180;-76
2024/04/08 03:19:27;;;;;;;3.80;1.20;;;13.30;35.40;;;;;;5054756;28;20444;-73
2024/04/08 03:21:53;;;;;;;1.40;1.20;;;13.20;35.40;;;;;;5056780;28;20535;-77
2024/04/08 03:24:18;;;;;;;1.30;1.17;;;13.20;38.20;;;;;;5056644;28;20498;-77
2024/04/08 03:26:44;;;;;;;2.87;1.47;;;13.20;52.40;;;;;;5056619;28;20190;-76
2024/04/08 03:29:10;;;;;;;1.20;1.10;;;13.20;59.30;;;;;;5055529;28;20192;-76
2024/04/08 03:31:36;;;;;;;3.07;1.40;;;13.30;69.60;;;;;;5056603;28;20206;-74
2024/04/08 03:34:03;;;;;;;1.40;1.30;;;13.20;71.50;;;;;;5056559;28;20164;-74
2024/04/08 03:36:29;;;;;;;1.83;1.03;;;13.30;79.90;;;;;;5056464;28;20428;-76
2024/04/08 03:38:54;;;;;;;3.93;1.33;;;13.20;79.00;;;;;;5055318;28;20432;-74
2024/04/08 03:41:20;;;;;;;1.20;1.10;;;13.10;82.50;;;;;;5056358;28;20511;-76
2024/04/08 03:43:46;;;;;;;1.90;1.70;;;13.10;82.80;;;;;;5056329;28;20178;-76
2024/04/08 03:46:12;;;;;;;2.27;1.53;;;13.10;92.20;;;;;;5056304;28;20199;-73
2024/04/08 03:48:38;;;;;;;2.20;1.63;;;13.10;99.50;;;;;;5054492;28;20430;-73
2024/04/08 03:51:10;;;;;;;1.50;1.40;;;13.10;99.90;;;;;;5054716;28;20265;-75
2024/04/08 03:53:36;;;;;;;3.57;1.23;;;13.10;99.90;;;;;;5055083;28;20195;-73
2024/04/08 03:56:07;;;;;;;2.50;1.53;;;13.10;99.90;;;;;;5054884;28;20426;-74
2024/04/08 03:58:32;;;;;;;3.73;1.63;;;13.10;99.90;;;;;;5053910;28;20909;-74
2024/04/08 04:00:59;;;;;;;1.53;1.33;;;13.10;99.90;;;;;;5054314;28;20505;-74
2024/04/08 04:03:26;;;;;;;1.57;1.47;;;13.00;99.90;;;;;;5053572;28;20583;-74
2024/04/08 04:05:52;;;;;;;3.13;1.53;;;13.10;99.90;;;;;;5053482;28;20796;-74
2024/04/08 04:08:17;;;;;;;2.00;1.43;;;13.00;99.90;;;;;;5052483;28;20454;-74
2024/04/08 04:10:44;;;;;;;2.13;1.50;;;13.10;99.90;;;;;;5053486;28;20195;-73
2024/04/08 04:13:10;;;;;;;2.03;1.77;;;13.10;99.90;;;;;;5054479;28;20333;-74
2024/04/08 04:15:36;;;;;;;3.03;1.50;;;13.10;99.90;;;;;;5053520;28;20420;-74
2024/04/08 04:18:01;;;;;;;4.67;1.57;;;13.00;99.90;;;;;;5053903;28;20414;-74
2024/04/08 04:20:39;;;;;;;1.70;1.60;;;13.00;99.90;;;;;;5054553;28;20266;-74
2024/04/08 04:23:05;;;;;;;2.17;1.97;;;12.90;99.90;;;;;;5054359;28;20531;-74
2024/04/08 04:25:31;;;;;;;2.13;1.93;;;12.90;99.90;;;;;;5054211;28;20421;-74
2024/04/08 04:27:57;;;;;;;2.60;1.77;;;13.00;99.90;;;;;;5053623;28;20417;-74
2024/04/08 04:30:23;;;;;;;1.87;1.67;;;13.00;99.90;;;;;;5054295;28;20511;-72
2024/04/08 04:32:49;;;;;;;1.70;1.60;;;12.90;99.90;;;;;;5054254;28;20460;-73
2024/04/08 04:35:16;;;;;;;2.10;1.90;;;12.90;99.90;;;;;;5053086;28;20376;-73
2024/04/08 04:37:42;;;;;;;2.40;2.20;;;12.90;99.90;;;;;;5054052;28;20966;-74
2024/04/08 04:40:08;;;;;;;1.80;1.70;;;12.90;99.90;;;;;;5053385;28;20421;-73
2024/04/08 04:42:35;;;;;;;2.13;1.90;;;12.90;99.90;;;;;;5054396;28;20415;-72
2024/04/08 04:45:01;;;;;;;12.00;2.17;;;12.90;99.90;;;;;;5054223;28;20380;-73
2024/04/08 04:51:22;;;;;;;2.77;2.40;;;12.90;99.90;;;;;;5508401;25;20468;-74
2024/04/08 04:53:48;;;;;;;2.70;2.50;;;12.90;99.90;;;;;;5472534;26;20963;-74
2024/04/08 04:56:14;;;;;;;5.63;2.10;;;12.90;99.90;;;;;;5472841;26;20264;-74
2024/04/08 04:58:39;;;;;;;2.30;2.20;;;12.90;99.90;;;;;;5471437;26;20558;-74
2024/04/08 05:01:05;;;;;;;2.17;1.77;;;12.90;99.90;;;;;;5436712;26;20271;-74
2024/04/08 05:03:31;;;;;;;3.87;2.00;;;12.80;99.90;;;;;;5436637;26;20262;-74
2024/04/08 05:06:00;;;;;;;2.90;1.90;;;12.90;99.90;;;;;;5436260;26;20212;-74
2024/04/08 05:08:26;;;;;;;2.70;2.50;;;12.90;99.90;;;;;;5435423;26;20499;-74
2024/04/08 05:10:52;;;;;;;2.17;1.97;;;12.90;99.90;;;;;;5404551;26;20529;-74
2024/04/08 05:13:18;;;;;;;3.50;2.47;;;13.00;99.90;;;;;;5404785;26;20212;-74
2024/04/08 05:16:28;;;;;;;2.07;1.87;;;13.00;99.90;;;;;;5436336;26;20449;-74
2024/04/08 05:18:53;;;;;;;2.60;1.50;;;13.00;99.90;;;;;;5403681;26;20486;-74
2024/04/08 05:21:21;;;;;;;4.13;2.23;;;13.00;99.90;;;;;;5436283;26;20437;-74
2024/04/08 05:23:47;;;;;;;2.57;2.30;;;13.00;99.90;;;;;;5436183;26;20306;-74
2024/04/08 05:26:13;;;;;;;3.40;2.10;;;13.00;99.90;;;;;;5436007;26;20487;-74
2024/04/08 05:28:39;;;;;;;2.27;1.90;;;13.00;99.90;;;;;;5435461;26;20443;-73
2024/04/08 05:31:05;;;;;;;2.57;2.37;;;12.90;99.90;;;;;;5435919;26;20279;-74
2024/04/08 05:33:31;;;;;;;2.30;2.10;;;12.90;99.90;;;;;;5435921;26;20787;-73
2024/04/08 05:35:57;;;;;;;2.60;2.37;;;13.00;99.90;;;;;;5435981;26;20450;-75
2024/04/08 05:38:24;;;;;;;3.33;1.93;;;13.00;99.90;;;;;;5434872;26;20505;-74
2024/04/08 05:40:50;;;;;;;4.93;2.03;;;13.10;99.90;;;;;;5435712;26;20462;-74
2024/04/08 05:43:19;;;;;;;5.13;2.43;;;13.00;99.90;;;;;;5435868;26;20434;-74
2024/04/08 05:45:48;;;;;;;3.30;2.30;;;13.10;99.90;;;;;;5435829;26;20512;-75
2024/04/08 05:48:14;;;;;;;3.63;1.90;;;13.10;99.90;;;;;;5434810;26;20590;-75
2024/04/08 05:50:40;;;;;;;2.30;2.10;;;13.10;99.90;;;;;;5435541;26;20517;-74
2024/04/08 05:53:23;;;;;;;3.00;1.80;;;13.20;99.90;;;;;;5404149;26;20502;-74
2024/04/08 05:55:49;;;;;;;6.00;2.13;;;13.10;99.90;;;;;;5404154;26;20451;-73
2024/04/08 05:58:16;;;;;;;3.00;2.43;;;13.20;99.90;;;;;;5434750;26;20447;-74
2024/04/08 06:00:43;;;;;;;2.37;2.00;;;13.20;99.90;;;;;;5430974;26;20815;-72
2024/04/08 06:03:09;;;;;;;2.63;2.00;;;13.20;99.90;;;;;;5419821;26;20444;-72
2024/04/08 06:05:35;;;;;;;2.77;2.40;;;13.20;99.90;;;;;;5420138;26;20777;-74
2024/04/08 06:08:01;;;;;;;3.30;2.17;;;13.10;99.90;;;;;;5418977;26;20501;-72
2024/04/08 06:10:30;;;;;;;4.57;2.20;;;13.20;99.90;;;;;;5419982;26;20462;-72
2024/04/08 06:12:57;;;;;;;5.70;2.20;;;13.20;99.90;;;;;;5419938;26;20233;-74
2024/04/08 06:15:23;;;;;;;9.37;2.07;;;13.20;99.90;;;;;;5419756;26;20447;-71
2024/04/08 06:17:49;;;;;;;3.70;2.30;;;13.30;99.90;;;;;;5418925;26;20448;-74
2024/04/08 06:20:15;;;;;;;7.87;2.90;;;13.40;99.90;;;;;;5419894;26;20552;-73
2024/04/08 06:22:41;;;;;;;3.27;2.70;;;13.40;99.90;;;;;;5419941;26;20442;-73
2024/04/08 06:25:09;;;;;;;2.80;2.30;;;13.50;99.90;;;;;;5420030;26;20505;-73
2024/04/08 06:27:35;;;;;;;2.90;2.20;;;13.50;99.90;;;;;;5388408;26;20245;-73
2024/04/08 06:30:02;;;;;;;6.43;1.90;;;13.50;99.90;;;;;;5387510;26;20467;-70
2024/04/08 06:32:28;;;;;;;5.93;2.30;;;13.60;99.90;;;;;;5419939;26;20973;-72
2024/04/08 06:34:54;;;;;;;1.93;1.83;;;13.60;99.90;;;;;;5419664;26;20443;-73
2024/04/08 06:37:20;;;;;;;2.70;2.50;;;13.60;99.90;;;;;;5419836;26;20262;-71
2024/04/08 06:39:46;;;;;;;3.83;2.83;;;13.70;99.90;;;;;;5418703;26;20831;-73
2024/04/08 06:42:19;;;;;;;3.57;1.97;;;13.70;99.90;;;;;;5419661;26;20493;-73
2024/04/08 06:44:48;;;;;;;2.73;2.47;;;13.70;99.90;;;;;;5388147;26;20460;-71
2024/04/08 06:47:15;;;;;;;4.27;1.70;;;13.70;99.90;;;;;;5419593;26;20509;-71
2024/04/08 06:49:41;;;;;;;2.07;1.87;;;13.70;99.90;;;;;;5418281;26;20459;-71
2024/04/08 06:52:07;;;;;;;2.47;2.27;;;13.70;99.90;;;;;;5388241;26;21016;-73
2024/04/08 06:54:33;;;;;;;1.70;1.60;;;13.70;99.90;;;;;;5419638;26;20452;-70
2024/04/08 06:56:59;;;;;;;1.67;1.57;;;13.60;99.90;;;;;;5388214;26;20220;-74
2024/04/08 06:59:25;;;;;;;5.90;2.00;;;13.70;99.90;;;;;;5386724;26;20268;-74
2024/04/08 07:01:51;;;;;;;3.20;2.30;;;13.60;99.90;;;;;;5419368;26;20497;-75
2024/04/08 07:04:19;;;;;;;2.20;2.07;;;13.70;99.90;;;;;;5419347;26;20810;-74
2024/04/08 07:06:48;;;;;;;2.40;1.87;;;13.70;99.90;;;;;;5419158;26;20217;-75
2024/04/08 07:09:14;;;;;;;2.10;1.90;;;13.70;99.90;;;;;;5418051;26;20575;-75
2024/04/08 07:11:40;;;;;;;2.43;2.23;;;13.80;99.90;;;;;;5419230;26;20438;-75
2024/04/08 07:14:06;;;;;;;3.13;1.80;;;13.80;99.90;;;;;;5418950;26;20439;-75
2024/04/08 07:16:32;;;;;;;5.60;1.77;;;13.90;99.90;;;;;;5418976;26;20583;-75
2024/04/08 07:18:58;;;;;;;2.20;2.00;;;14.00;99.90;;;;;;5418320;26;20636;-75
2024/04/08 07:21:24;;;;;;;2.10;1.60;;;14.00;99.90;;;;;;5419166;26;20497;-75
2024/04/08 07:23:54;;;;;;;2.77;1.90;;;14.00;99.90;;;;;;5419182;26;20448;-74
2024/04/08 07:26:20;;;;;;;4.53;1.73;;;13.90;99.90;;;;;;5419309;26;20494;-74
2024/04/08 07:28:46;;;;;;;2.83;1.73;;;14.00;99.90;;;;;;5418023;26;20448;-74
2024/04/08 07:31:12;;;;;;;2.17;1.90;;;14.00;99.90;;;;;;5418791;26;20832;-74
2024/04/08 07:33:38;;;;;;;1.70;1.60;;;14.10;99.90;;;;;;5418905;26;20501;-75
2024/04/08 07:36:22;;;;;;;3.90;2.10;;;14.10;99.90;;;;;;5418809;26;20445;-75
2024/04/08 07:38:48;;;;;;;3.00;1.40;;;14.10;99.90;;;;;;5417893;26;20503;-75
2024/04/08 07:41:14;;;;;;;1.40;1.30;;;14.20;99.90;;;;;;5419025;26;20961;-74
2024/04/08 07:43:41;;;;;;;1.87;1.77;;;14.30;99.90;;;;;;5418683;26;20441;-75
2024/04/08 07:46:07;;;;;;;5.77;1.90;;;14.40;99.90;;;;;;5418697;26;20505;-75
2024/04/08 07:48:33;;;;;;;1.80;1.70;;;14.50;99.90;;;;;;5418140;26;20958;-76
2024/04/08 07:50:59;;;;;;;1.43;1.33;;;14.50;99.90;;;;;;5418436;26;20522;-75
2024/04/08 07:53:26;;;;;;;2.07;1.80;;;14.50;99.90;;;;;;5418815;26;20257;-75
2024/04/08 07:55:52;;;;;;;5.93;1.30;;;14.50;99.90;;;;;;5418537;26;20981;-74
2024/04/08 07:58:18;;;;;;;1.40;1.30;;;14.60;99.90;;;;;;5417847;26;20489;-77
2024/04/08 08:00:54;;;;;;;1.13;1.03;;;14.60;99.90;;;;;;5418314;26;20474;-76
2024/04/08 08:03:26;;;;;;;1.83;1.30;;;14.70;99.90;;;;;;5418633;26;20221;-76
2024/04/08 08:05:55;;;;;;;1.80;1.33;;;14.90;99.90;;;;;;5418368;26;20901;-74
2024/04/08 08:08:27;;;;;;;2.33;1.13;;;15.10;99.90;;;;;;5417977;26;20506;-74
2024/04/08 08:10:55;;;;;;;1.47;0.90;;;15.20;99.90;;;;;;5418180;26;20461;-74
2024/04/08 08:13:21;;;;;;;3.47;1.13;;;15.30;99.90;;;;;;5418290;26;20829;-76
2024/04/08 08:15:58;;;;;;;2.57;0.97;;;15.30;84.50;;;;;;5418294;26;20487;-77
2024/04/08 08:18:24;;;;;;;3.17;1.10;;;15.20;4.30;;;;;;5417530;26;20513;-73
2024/04/08 08:20:51;;;;;;;2.37;1.83;;;15.20;1.00;;;;;;5418133;26;20516;-77
2024/04/08 08:23:17;;;;;;;2.80;1.10;;;15.10;1.00;;;;;;5417969;26;20439;-68
2024/04/08 08:25:43;;;;;;;1.53;1.10;;;15.20;1.00;;;;;;5417236;26;20456;-77
2024/04/08 08:28:09;;;;;;;1.30;1.10;;;15.20;1.00;;;;;;5417461;26;20461;-70
2024/04/08 08:30:36;;;;;;;1.23;1.03;;;15.10;1.00;;;;;;5386556;26;20576;-77
2024/04/08 08:33:02;;;;;;;1.00;0.80;;;15.20;1.00;;;;;;5417850;26;20530;-77
2024/04/08 08:35:30;;;;;;;0.97;0.77;;;15.40;1.00;;;;;;5417728;26;20513;-75
2024/04/08 08:37:57;;;;;;;1.10;0.90;;;15.50;1.00;;;;;;5416831;26;20494;-75
2024/04/08 08:40:26;;;;;;;1.43;1.00;;;15.60;1.00;;;;;;5417820;26;20457;-76
2024/04/08 08:42:55;;;;;;;2.33;0.80;;;15.70;1.00;;;;;;5417958;26;20485;-76
2024/04/08 08:45:21;;;;;;;1.30;1.00;;;15.70;99.90;;;;;;5417658;26;20447;-76
2024/04/08 08:47:50;;;;;;;1.00;0.80;;;15.90;1.00;;;;;;5417336;26;20496;-76
2024/04/08 08:50:16;;;;;;;2.57;1.10;;;16.10;99.90;;;;;;5417516;26;20221;-74
2024/04/08 08:52:43;;;;;;;1.20;0.93;;;16.20;99.90;;;;;;5417564;26;20458;-74
2024/04/08 08:55:10;;;;;;;1.33;0.90;;;16.30;99.90;;;;;;5417699;26;20510;-74
2024/04/08 08:57:36;;;;;;;1.53;1.10;;;16.40;99.90;;;;;;5417573;26;20765;-74
2024/04/08 09:00:06;;;;;;;1.00;0.80;;;16.30;99.90;;;;;;5416624;26;20561;-76
2024/04/08 09:02:35;;;;;;;2.13;0.90;;;16.40;99.90;;;;;;5417495;26;20438;-74
2024/04/08 09:05:01;;;;;;;1.00;0.80;;;16.70;99.90;;;;;;5417523;26;20818;-74
2024/04/08 09:07:26;;;;;;;1.20;1.00;;;16.90;99.90;;;;;;5417256;26;20506;-74
2024/04/08 09:09:56;;;;;;;1.60;0.80;;;17.20;99.90;;;;;;5416335;26;20454;-74
2024/04/08 09:12:22;;;;;;;1.20;0.80;;;17.30;99.90;;;;;;5417355;26;20689;-73
2024/04/08 09:14:49;;;;;;;1.10;0.90;;;17.20;99.90;;;;;;5417205;26;20440;-74
2024/04/08 09:17:16;;;;;;;1.77;0.80;;;17.10;99.90;;;;;;5417165;26;20446;-74
2024/04/08 09:19:42;;;;;;;2.13;0.90;;;17.00;99.90;;;;;;5416011;26;20503;-74
2024/04/08 09:22:08;;;;;;;1.00;0.80;;;16.80;99.90;;;;;;5417321;26;20442;-74
2024/04/08 09:24:36;;;;;;;3.17;0.97;;;16.70;99.90;;;;;;5417144;26;20217;-73
2024/04/08 09:27:02;;;;;;;1.60;0.87;;;16.80;99.90;;;;;;5416961;26;20555;-74
2024/04/08 09:29:34;;;;;;;1.00;0.90;;;16.90;99.90;;;;;;5416043;26;20843;-74
2024/04/08 09:32:00;;;;;;;2.47;0.87;;;17.10;99.90;;;;;;5416981;26;20530;-76
2024/04/08 09:34:30;;;;;;;0.93;0.80;;;17.20;99.90;;;;;;5416957;26;20514;-76
2024/04/08 09:36:56;;;;;;;1.00;0.90;;;17.40;99.90;;;;;;5418509;26;21018;-76
2024/04/08 09:39:23;;;;;;;1.10;0.93;;;17.50;99.90;;;;;;5419475;26;20511;-76
2024/04/08 09:41:51;;;;;;;1.00;0.80;;;17.30;99.90;;;;;;5420450;26;20548;-75
2024/04/08 09:44:18;;;;;;;1.00;0.80;;;17.30;99.90;;;;;;5420454;26;20445;-75
2024/04/08 09:46:45;;;;;;;1.27;0.83;;;17.30;99.90;;;;;;5420399;26;20450;-73
2024/04/08 09:49:12;;;;;;;0.90;0.60;;;17.30;99.90;;;;;;5419302;26;20454;-75
2024/04/08 09:51:41;;;;;;;1.50;0.70;;;17.30;98.20;;;;;;5420168;26;20854;-75
2024/04/08 09:54:08;;;;;;;1.07;0.90;;;17.20;94.70;;;;;;5420385;26;20965;-74
2024/04/08 09:56:39;;;;;;;1.00;0.70;;;17.30;94.70;;;;;;5420124;26;20446;-75
2024/04/08 09:59:20;;;;;;;0.90;0.70;;;17.20;94.70;;;;;;5419554;26;20995;-74
2024/04/08 10:01:47;;;;;;;1.00;0.90;;;17.10;94.60;;;;;;5419950;26;20434;-74
2024/04/08 10:04:19;;;;;;;1.10;0.90;;;17.20;94.60;;;;;;5420031;26;20446;-74
2024/04/08 10:06:49;;;;;;;1.17;0.80;;;17.10;94.60;;;;;;5420062;26;20489;-73
2024/04/08 10:09:20;;;;;;;1.00;0.70;;;17.20;94.70;;;;;;5419111;26;20451;-77
2024/04/08 10:11:51;;;;;;;1.50;0.70;;;17.50;94.70;;;;;;5388396;26;20827;-74
2024/04/08 10:14:18;;;;;;;0.90;0.77;;;17.70;94.90;;;;;;5420001;26;20498;-77
2024/04/08 10:16:46;;;;;;;1.50;0.90;;;18.00;94.90;;;;;;5420002;26;20486;-74
2024/04/08 10:19:22;;;;;;;1.47;0.87;;;18.30;95.10;;;;;;5418898;26;20470;-74
2024/04/08 10:21:52;;;;;;;1.13;0.97;;;18.40;85.80;;;;;;5419806;26;20434;-76
2024/04/08 10:24:31;;;;;;;0.90;0.70;;;18.10;69.80;;;;;;5419835;26;20435;-77
2024/04/08 10:27:08;;;;;;;1.00;0.80;;;17.90;55.70;;;;;;5419738;26;20505;-73
2024/04/08 10:29:38;;;;;;;1.57;0.70;;;17.80;60.60;;;;;;5418655;26;20498;-77
2024/04/08 10:32:04;;;;;;;1.53;1.00;;;17.90;55.70;;;;;;5419689;26;20483;-74
2024/04/08 10:34:30;;;;;;;1.33;0.80;;;17.90;41.90;;;;;;5419712;26;21059;-77
2024/04/08 10:36:57;;;;;;;1.57;0.70;;;17.80;43.70;;;;;;5419820;26;20556;-73
2024/04/08 10:39:26;;;;;;;1.10;0.97;;;17.90;53.90;;;;;;5418521;26;20518;-74
2024/04/08 10:41:57;;;;;;;2.37;1.00;;;18.10;53.50;;;;;;5419952;26;20438;-74
2024/04/08 10:44:24;;;;;;;1.47;0.80;;;18.40;51.20;;;;;;5419318;26;20442;-74
2024/04/08 10:46:50;;;;;;;1.20;0.80;;;18.60;35.40;;;;;;5419000;26;20438;-74
2024/04/08 10:49:16;;;;;;;0.90;0.70;;;18.60;7.80;;;;;;5418298;26;20455;-77
2024/04/08 10:51:43;;;;;;;1.47;0.87;;;18.60;13.90;;;;;;5419450;26;20454;-77
2024/04/08 10:54:09;;;;;;;1.10;0.80;;;18.50;1.00;;;;;;5419430;26;20506;-77
2024/04/08 10:56:35;;;;;;;1.10;0.97;;;18.50;1.00;;;;;;5419512;26;20439;-74
2024/04/08 10:59:08;;;;;;;1.10;0.73;;;18.50;1.00;;;;;;5418523;26;20516;-77
2024/04/08 11:01:35;;;;;;;0.90;0.70;;;18.40;1.00;;;;;;5419337;26;20560;-74
2024/04/08 11:04:02;;;;;;;1.83;0.80;;;18.40;1.00;;;;;;5419456;26;20528;-74
2024/04/08 11:06:28;;;;;;;3.90;1.00;;;18.60;1.00;;;;;;5419145;26;20487;-77
2024/04/08 11:08:54;;;;;;;0.90;0.67;;;18.70;1.00;;;;;;5418179;26;20544;-78
2024/04/08 11:11:24;;;;;;;1.40;0.90;;;19.30;1.00;;;;;;5419350;26;20450;-73
2024/04/08 11:13:51;;;;;;;1.50;0.77;;;20.00;1.00;;;;;;5419259;26;20502;-77
2024/04/08 11:16:16;;;;;;;0.90;0.60;;;20.60;1.00;;;;;;5419108;26;20439;-74
2024/04/08 11:18:45;;;;;;;1.33;0.70;;;21.20;1.00;;;;;;5417916;26;20894;-76
2024/04/08 11:21:11;;;;;;;0.90;0.67;;;21.90;1.00;;;;;;5419267;26;20213;-74
2024/04/08 11:23:43;;;;;;;0.90;0.70;;;22.00;1.00;;;;;;5419088;26;20514;-78
2024/04/08 11:26:09;;;;;;;0.90;0.70;;;21.60;1.00;;;;;;5419281;26;20590;-78
2024/04/08 11:28:38;;;;;;;1.57;0.90;;;21.20;1.00;;;;;;5417853;26;20625;-74
2024/04/08 11:31:06;;;;;;;5.63;0.93;;;20.90;1.00;;;;;;5418724;26;20454;-77
2024/04/08 11:33:32;;;;;;;2.33;0.90;;;20.90;1.00;;;;;;5419082;26;20866;-77
2024/04/08 11:35:58;;;;;;;3.53;0.77;;;20.50;1.00;;;;;;5418844;26;20439;-77
2024/04/08 11:38:24;;;;;;;3.67;0.90;;;20.10;1.00;;;;;;5418095;26;20946;-74
2024/04/08 11:40:49;;;;;;;1.13;0.80;;;19.90;1.00;;;;;;5418430;26;20463;-74
2024/04/08 11:43:18;;;;;;;0.93;0.60;;;19.70;1.00;;;;;;5418708;26;20263;-74
2024/04/08 11:45:43;;;;;;;0.90;0.60;;;19.70;1.00;;;;;;5418713;26;20247;-74
2024/04/08 11:48:09;;;;;;;1.00;0.60;;;19.60;1.00;;;;;;5417733;26;20442;-74
2024/04/08 11:50:35;;;;;;;1.00;0.73;;;20.00;1.00;;;;;;5418537;26;20325;-78
2024/04/08 11:53:01;;;;;;;2.30;0.80;;;20.80;1.00;;;;;;5418713;26;20446;-77
2024/04/08 11:55:27;;;;;;;1.40;0.80;;;21.80;1.00;;;;;;5418873;26;20220;-74
2024/04/08 11:57:52;;;;;;;0.90;0.57;;;22.30;1.00;;;;;;5417622;26;20228;-77
2024/04/08 12:00:20;;;;;;;0.90;0.60;;;22.50;1.00;;;;;;5417304;26;20224;-77
2024/04/08 12:02:47;;;;;;;1.00;0.77;;;22.70;1.00;;;;;;5418581;26;20213;-76
2024/04/08 12:05:13;;;;;;;1.00;0.60;;;22.90;1.00;;;;;;5418855;26;20495;-74
2024/04/08 12:07:38;;;;;;;1.13;0.70;;;23.10;1.00;;;;;;5418668;26;20438;-72
2024/04/08 12:10:09;;;;;;;1.57;0.73;;;22.70;1.00;;;;;;5417261;26;20224;-74
2024/04/08 12:12:35;;;;;;;3.13;0.70;;;22.40;1.00;;;;;;5418422;26;20212;-73
2024/04/08 12:15:03;;;;;;;1.17;0.60;;;22.30;1.00;;;;;;5418276;26;20438;-74
2024/04/08 12:17:29;;;;;;;1.50;0.70;;;22.40;1.00;;;;;;5418236;26;20434;-73
2024/04/08 12:19:55;;;;;;;1.30;0.87;;;22.10;1.00;;;;;;5385810;26;20545;-73
2024/04/08 12:22:21;;;;;;;1.20;0.70;;;21.70;1.00;;;;;;5418428;26;20212;-74
2024/04/08 12:24:47;;;;;;;1.00;0.80;;;21.60;1.00;;;;;;5418159;26;20495;-74
2024/04/08 12:27:13;;;;;;;3.57;0.70;;;21.50;1.00;;;;;;5417988;26;20217;-74
2024/04/08 12:29:38;;;;;;;0.93;0.70;;;21.20;1.00;;;;;;5417046;26;20763;-73
2024/04/08 12:32:04;;;;;;;2.43;0.77;;;21.10;1.00;;;;;;5418160;26;20216;-73
2024/04/08 12:34:30;;;;;;;1.33;0.80;;;21.30;1.00;;;;;;5418202;26;20212;-73
2024/04/08 12:36:56;;;;;;;1.20;0.80;;;21.90;1.00;;;;;;5418201;26;20947;-73
2024/04/08 12:39:22;;;;;;;1.20;0.73;;;22.40;1.00;;;;;;5416894;26;20332;-73
2024/04/08 12:41:47;;;;;;;0.93;0.70;;;22.80;1.00;;;;;;5417921;26;20788;-73
2024/04/08 12:44:13;;;;;;;1.13;0.70;;;22.10;1.00;;;;;;5386413;26;20218;-73
2024/04/08 12:46:40;;;;;;;1.53;0.90;;;21.40;1.00;;;;;;5417910;26;20216;-73
2024/04/08 12:49:06;;;;;;;1.40;0.80;;;21.10;1.00;;;;;;5416524;26;20219;-73
2024/04/08 12:51:32;;;;;;;4.03;0.67;;;20.80;1.00;;;;;;5417865;26;20551;-74
2024/04/08 12:53:58;;;;;;;1.43;0.70;;;21.60;1.00;;;;;;5417744;26;20874;-73